sensor_id;sensor_type;location;lat;lon;timestamp;pressure;altitude;pressure_sealevel;temperature;humidity
7586;BME280;12459;42.646;23.292;2022-08-21T00:01:25;93106.34;;;21.28;85.78
7586;BME280;12459;42.646;23.292;2022-08-21T00:16:27;93089.78;;;21.69;85.63
7586;BME280;12459;42.646;23.292;2022-08-21T00:31:29;93072.66;;;21.68;82.58
7586;BME280;12459;42.646;23.292;2022-08-21T00:46:31;93081.22;;;20.93;86.73
7586;BME280;12459;42.646;23.292;2022-08-21T01:01:33;93075.84;;;21.61;82.34
7586;BME280;12459;42.646;23.292;2022-08-21T01:16:34;93057.84;;;21.38;83.80
7586;BME280;12459;42.646;23.292;2022-08-21T01:31:36;93052.38;;;20.34;88.78
7586;BME280;12459;42.646;23.292;2022-08-21T01:46:38;93055.94;;;20.00;94.28
7586;BME280;12459;42.646;23.292;2022-08-21T02:01:39;93059.03;;;19.23;95.75
7586;BME280;12459;42.646;23.292;2022-08-21T02:16:42;93050.63;;;19.06;98.51
7586;BME280;12459;42.646;23.292;2022-08-21T02:31:45;93072.19;;;19.59;90.16
7586;BME280;12459;42.646;23.292;2022-08-21T02:46:46;93080.91;;;20.85;86.85
7586;BME280;12459;42.646;23.292;2022-08-21T03:01:48;93071.13;;;19.71;94.66
7586;BME280;12459;42.646;23.292;2022-08-21T03:16:50;93074.44;;;19.96;90.92
7586;BME280;12459;42.646;23.292;2022-08-21T03:31:51;93070.13;;;21.59;80.59
7586;BME280;12459;42.646;23.292;2022-08-21T03:46:55;93061.84;;;19.78;89.70
7586;BME280;12459;42.646;23.292;2022-08-21T04:02:00;93092.00;;;21.08;84.14
7586;BME280;12459;42.646;23.292;2022-08-21T04:17:02;93084.03;;;21.61;81.10
7586;BME280;12459;42.646;23.292;2022-08-21T04:32:04;93076.81;;;20.75;87.00
7586;BME280;12459;42.646;23.292;2022-08-21T04:47:05;93078.50;;;20.47;90.16
7586;BME280;12459;42.646;23.292;2022-08-21T05:02:07;93084.00;;;21.93;85.95
7586;BME280;12459;42.646;23.292;2022-08-21T05:17:10;93093.50;;;21.09;88.49
7586;BME280;12459;42.646;23.292;2022-08-21T05:32:12;93084.69;;;23.18;80.96
7586;BME280;12459;42.646;23.292;2022-08-21T05:47:14;93080.06;;;22.59;82.06
7586;BME280;12459;42.646;23.292;2022-08-21T06:02:19;93089.47;;;22.47;81.81
7586;BME280;12459;42.646;23.292;2022-08-21T06:17:21;93079.16;;;25.23;73.72
7586;BME280;12459;42.646;23.292;2022-08-21T06:32:22;93087.44;;;23.18;76.59
7586;BME280;12459;42.646;23.292;2022-08-21T06:47:24;93087.34;;;22.84;77.54
7586;BME280;12459;42.646;23.292;2022-08-21T07:02:26;93095.06;;;22.80;79.29
7586;BME280;12459;42.646;23.292;2022-08-21T07:17:28;93103.06;;;23.06;78.48
7586;BME280;12459;42.646;23.292;2022-08-21T07:32:29;93096.84;;;22.95;77.55
7586;BME280;12459;42.646;23.292;2022-08-21T07:47:31;93082.50;;;26.49;69.14
7586;BME280;12459;42.646;23.292;2022-08-21T08:02:46;93071.53;;;26.87;65.86
7586;BME280;12459;42.646;23.292;2022-08-21T08:17:50;93070.84;;;24.99;64.94
7586;BME280;12459;42.646;23.292;2022-08-21T08:32:52;93077.50;;;25.74;66.08
7586;BME280;12459;42.646;23.292;2022-08-21T08:47:59;93078.88;;;26.17;63.54
7586;BME280;12459;42.646;23.292;2022-08-21T09:03:02;93061.88;;;25.34;62.61
7586;BME280;12459;42.646;23.292;2022-08-21T09:18:11;93044.69;;;25.88;64.63
7586;BME280;12459;42.646;23.292;2022-08-21T09:33:16;93032.28;;;27.24;61.56
7586;BME280;12459;42.646;23.292;2022-08-21T09:48:19;93038.00;;;26.07;60.44
7586;BME280;12459;42.646;23.292;2022-08-21T10:03:21;93023.00;;;26.08;59.60
7586;BME280;12459;42.646;23.292;2022-08-21T10:18:41;93008.91;;;27.76;56.86
7586;BME280;12459;42.646;23.292;2022-08-21T10:33:52;92997.72;;;25.91;62.02
7586;BME280;12459;42.646;23.292;2022-08-21T10:48:58;92997.81;;;25.56;61.23
7586;BME280;12459;42.646;23.292;2022-08-21T11:04:15;92975.25;;;25.68;62.93
7586;BME280;12459;42.646;23.292;2022-08-21T11:19:28;92948.28;;;27.04;57.74
7586;BME280;12459;42.646;23.292;2022-08-21T12:04:42;92936.72;;;25.98;60.20
7586;BME280;12459;42.646;23.292;2022-08-21T12:20:00;92927.16;;;25.13;62.76
7586;BME280;12459;42.646;23.292;2022-08-21T13:05:31;92908.66;;;24.83;67.89
7586;BME280;12459;42.646;23.292;2022-08-21T13:20:34;92903.09;;;25.49;66.05
7586;BME280;12459;42.646;23.292;2022-08-21T13:35:44;92876.25;;;26.04;64.37
7586;BME280;12459;42.646;23.292;2022-08-21T13:50:48;92873.44;;;26.09;63.85
7586;BME280;12459;42.646;23.292;2022-08-21T14:05:50;92882.44;;;25.42;66.75
7586;BME280;12459;42.646;23.292;2022-08-21T14:20:57;92882.75;;;24.13;73.94
7586;BME280;12459;42.646;23.292;2022-08-21T14:36:04;92899.97;;;24.79;79.53
7586;BME280;12459;42.646;23.292;2022-08-21T14:51:06;92893.44;;;25.86;75.61
7586;BME280;12459;42.646;23.292;2022-08-21T15:06:08;92883.44;;;23.73;90.47
7586;BME280;12459;42.646;23.292;2022-08-21T15:21:10;92841.59;;;24.60;83.18
7586;BME280;12459;42.646;23.292;2022-08-21T15:36:11;92816.91;;;24.60;80.43
7586;BME280;12459;42.646;23.292;2022-08-21T15:51:13;92808.25;;;24.20;78.69
7586;BME280;12459;42.646;23.292;2022-08-21T16:06:15;92832.34;;;24.33;75.60
7586;BME280;12459;42.646;23.292;2022-08-21T16:21:17;92869.91;;;23.92;82.68
7586;BME280;12459;42.646;23.292;2022-08-21T16:36:18;92885.28;;;23.37;87.22
7586;BME280;12459;42.646;23.292;2022-08-21T16:51:21;92875.03;;;23.65;85.74
7586;BME280;12459;42.646;23.292;2022-08-21T17:06:23;92897.56;;;22.69;94.34
7586;BME280;12459;42.646;23.292;2022-08-21T17:21:29;92927.31;;;22.16;94.60
7586;BME280;12459;42.646;23.292;2022-08-21T17:36:31;92929.88;;;21.83;94.22
7586;BME280;12459;42.646;23.292;2022-08-21T17:51:32;92946.59;;;22.02;92.83
7586;BME280;12459;42.646;23.292;2022-08-21T18:06:34;92972.41;;;21.52;95.63
7586;BME280;12459;42.646;23.292;2022-08-21T18:21:36;92982.22;;;22.52;89.56
7586;BME280;12459;42.646;23.292;2022-08-21T18:36:38;92980.38;;;22.10;91.81
7586;BME280;12459;42.646;23.292;2022-08-21T18:51:39;92983.06;;;21.50;94.05
7586;BME280;12459;42.646;23.292;2022-08-21T19:06:45;92982.94;;;20.70;94.59
7586;BME280;12459;42.646;23.292;2022-08-21T19:21:47;92981.88;;;20.88;93.06
7586;BME280;12459;42.646;23.292;2022-08-21T19:36:49;92986.47;;;21.88;86.81
7586;BME280;12459;42.646;23.292;2022-08-21T19:51:51;93007.66;;;23.03;82.56
7586;BME280;12459;42.646;23.292;2022-08-21T20:06:53;93019.44;;;22.44;85.35
7586;BME280;12459;42.646;23.292;2022-08-21T20:21:55;93006.94;;;22.15;89.69
7586;BME280;12459;42.646;23.292;2022-08-21T20:36:58;92991.22;;;21.13;95.28
7586;BME280;12459;42.646;23.292;2022-08-21T20:52:01;92990.47;;;21.44;92.11
7586;BME280;12459;42.646;23.292;2022-08-21T21:07:04;93022.97;;;21.96;87.64
7586;BME280;12459;42.646;23.292;2022-08-21T21:22:10;93038.44;;;20.99;93.37
7586;BME280;12459;42.646;23.292;2022-08-21T21:37:23;93011.00;;;21.82;87.29
7586;BME280;12459;42.646;23.292;2022-08-21T21:52:33;93011.38;;;20.90;90.66
7586;BME280;12459;42.646;23.292;2022-08-21T22:16:06;93019.59;;;20.95;88.36
7586;BME280;12459;42.646;23.292;2022-08-21T22:31:15;93012.66;;;20.43;92.14
7586;BME280;12459;42.646;23.292;2022-08-21T22:46:29;92997.38;;;20.51;89.67
7586;BME280;12459;42.646;23.292;2022-08-21T23:01:39;92995.97;;;21.55;84.75
7586;BME280;12459;42.646;23.292;2022-08-21T23:17:17;93010.28;;;20.09;89.28
